createdAt,value
2022-12-26T00:00:43.975Z,100289.78
2022-12-26T00:02:48.235Z,100284.53
2022-12-26T00:04:53.794Z,100300.31
2022-12-26T00:06:59.029Z,100305.47
2022-12-26T00:09:07.620Z,100290.63
2022-12-26T00:11:12.792Z,100308.94
2022-12-26T00:13:39.789Z,100312.28
2022-12-26T00:15:42.315Z,100307.19
2022-12-26T00:17:45.831Z,100314.19
2022-12-26T00:19:49.571Z,100311.63
2022-12-26T00:21:53.174Z,100319.47
2022-12-26T00:23:59.001Z,100319.47
2022-12-26T00:26:05.832Z,100323.88
2022-12-26T00:28:09.828Z,100324.84
2022-12-26T00:30:14.377Z,100336.22
2022-12-26T00:32:18.050Z,100336.16
2022-12-26T00:34:21.789Z,100336.22
2022-12-26T00:36:28.423Z,100346.63
2022-12-26T00:38:32.200Z,100347.59
2022-12-26T00:40:35.970Z,100348.53
2022-12-26T00:42:41.032Z,100357.22
2022-12-26T00:44:44.578Z,100349.44
2022-12-26T00:46:48.945Z,100367.91
2022-12-26T00:48:53.076Z,100367.97
2022-12-26T00:50:57.198Z,100374.03
2022-12-26T00:53:00.902Z,100383.59
2022-12-26T00:55:04.678Z,100390.56
2022-12-26T00:57:08.331Z,100395.88
2022-12-26T00:59:13.561Z,100395.03
2022-12-26T01:01:19.958Z,100401.03
2022-12-26T01:03:24.345Z,100396.69
2022-12-26T01:05:28.158Z,100402.81
2022-12-26T01:07:34.637Z,100401.91
2022-12-26T01:09:58.131Z,100405.19
2022-12-26T01:12:01.966Z,100413.84
2022-12-26T01:14:05.798Z,100412.88
2022-12-26T01:16:11.466Z,100419.75
2022-12-26T01:18:15.107Z,100422.25
2022-12-26T01:20:18.908Z,100429.97
2022-12-26T01:22:23.134Z,100441.25
2022-12-26T01:24:26.784Z,100437.59
2022-12-26T01:26:30.483Z,100446.22
2022-12-26T01:28:34.189Z,100445.25
2022-12-26T01:30:38.643Z,100448.72
2022-12-26T01:32:43.761Z,100454.75
2022-12-26T01:34:48.007Z,100451.22
2022-12-26T01:36:53.151Z,100458.19
2022-12-26T01:38:56.727Z,100456.41
2022-12-26T01:41:20.524Z,100467.63
2022-12-26T01:43:24.536Z,100462.38
2022-12-26T01:45:30.765Z,100464.94
2022-12-26T01:47:48.813Z,100472.78
2022-12-26T01:49:54.902Z,100473.63
2022-12-26T01:52:01.206Z,100480.50
2022-12-26T01:54:40.280Z,100489.13
2022-12-26T01:56:36.548Z,100490.78
2022-12-26T01:58:45.211Z,100492.50
2022-12-26T02:00:50.210Z,100500.25
2022-12-26T02:03:13.560Z,100508.91
2022-12-26T02:05:37.712Z,100503.59
2022-12-26T02:07:43.802Z,100509.63
2022-12-26T02:09:47.558Z,100509.56
2022-12-26T02:12:34.891Z,100520.06
2022-12-26T02:14:22.206Z,100520.91
2022-12-26T02:16:26.217Z,100513.88
2022-12-26T02:18:31.259Z,100528.69
2022-12-26T02:20:44.380Z,100532.22
2022-12-26T02:23:31.894Z,100532.13
2022-12-26T02:26:04.132Z,100543.44
2022-12-26T02:28:40.296Z,100545.09
2022-12-26T02:30:50.259Z,100540.75
2022-12-26T02:33:08.684Z,100546.00
2022-12-26T02:35:20.369Z,100554.66
2022-12-26T02:37:43.176Z,100548.56
2022-12-26T02:40:02.918Z,100559.16
2022-12-26T02:42:18.447Z,100564.41
2022-12-26T02:44:43.578Z,100570.53
2022-12-26T02:47:04.484Z,100568.97
2022-12-26T02:49:16.676Z,100572.63
2022-12-26T02:51:47.379Z,100573.59
2022-12-26T02:54:19.281Z,100574.63
2022-12-26T02:56:47.992Z,100581.69
2022-12-26T02:59:17.843Z,100586.13
2022-12-26T03:01:43.874Z,100578.38
2022-12-26T03:04:10.544Z,100589.78
2022-12-26T03:06:34.387Z,100582.88
2022-12-26T03:09:01.577Z,100582.16
2022-12-26T03:11:22.987Z,100587.50
2022-12-26T03:13:33.303Z,100584.88
2022-12-26T03:15:55.382Z,100584.84
2022-12-26T03:18:05.069Z,100587.50
2022-12-26T03:20:15.392Z,100592.72
2022-12-26T03:22:31.680Z,100597.97
2022-12-26T03:25:02.416Z,100593.59
2022-12-26T03:27:04.681Z,100583.97
2022-12-26T03:29:27.537Z,100583.25
2022-12-26T03:31:30.882Z,100592.97
2022-12-26T03:33:56.247Z,100590.34
2022-12-26T03:36:02.726Z,100580.78
2022-12-26T03:38:10.325Z,100586.03
2022-12-26T03:40:43.162Z,100578.16
2022-12-26T03:43:14.660Z,100586.03
2022-12-26T03:45:44.334Z,100585.19
2022-12-26T03:48:15.468Z,100576.44
2022-12-26T03:50:49.728Z,100573.97
2022-12-26T03:53:21.788Z,100574.97
2022-12-26T03:55:47.002Z,100576.81
2022-12-26T03:58:12.515Z,100587.38
2022-12-26T04:00:34.241Z,100571.84
2022-12-26T04:02:57.278Z,100578.06
2022-12-26T04:05:23.211Z,100583.28
2022-12-26T04:07:56.221Z,100586.94
2022-12-26T04:10:24.269Z,100594.00
2022-12-26T04:12:48.445Z,100587.09
2022-12-26T04:15:13.571Z,100590.69
2022-12-26T04:17:44.727Z,100599.44
2022-12-26T04:20:00.501Z,100602.06
2022-12-26T04:22:31.983Z,100605.50
2022-12-26T04:24:58.427Z,100609.16
2022-12-26T04:27:23.590Z,100613.53
2022-12-26T04:29:44.275Z,100619.66
2022-12-26T04:32:12.431Z,100607.53
2022-12-26T04:34:39.097Z,100610.13
2022-12-26T04:37:04.215Z,100619.66
2022-12-26T04:39:29.799Z,100621.44
2022-12-26T04:41:53.005Z,100620.59
2022-12-26T04:44:09.943Z,100627.53
2022-12-26T04:46:14.685Z,100621.38
2022-12-26T04:48:35.716Z,100623.16
2022-12-26T04:50:49.398Z,100630.13
2022-12-26T04:53:01.414Z,100616.38
2022-12-26T04:55:05.119Z,100623.47
2022-12-26T04:57:08.796Z,100629.56
2022-12-26T04:59:13.521Z,100635.66
2022-12-26T05:01:34.645Z,100628.75
2022-12-26T05:03:55.225Z,100632.28
2022-12-26T05:06:14.994Z,100639.34
2022-12-26T05:08:43.234Z,100643.75
2022-12-26T05:10:46.599Z,100639.38
2022-12-26T05:12:50.237Z,100639.38
2022-12-26T05:14:54.941Z,100638.53
2022-12-26T05:17:15.989Z,100631.50
2022-12-26T05:19:37.023Z,100631.38
2022-12-26T05:21:57.815Z,100624.25
2022-12-26T05:24:18.901Z,100631.91
2022-12-26T05:26:41.520Z,100643.13
2022-12-26T05:28:45.799Z,100631.66
2022-12-26T05:30:50.745Z,100637.66
2022-12-26T05:33:11.562Z,100639.28
2022-12-26T05:35:15.122Z,100645.25
2022-12-26T05:37:18.371Z,100646.97
2022-12-26T05:39:21.632Z,100649.59
2022-12-26T05:41:25.329Z,100646.97
2022-12-26T05:43:28.762Z,100652.22
2022-12-26T05:45:32.199Z,100651.41
2022-12-26T05:47:36.921Z,100662.81
2022-12-26T05:49:40.181Z,100669.91
2022-12-26T05:51:43.115Z,100668.22
2022-12-26T05:53:46.577Z,100668.28
2022-12-26T05:55:49.825Z,100667.47
2022-12-26T05:57:53.313Z,100669.19
2022-12-26T05:59:56.571Z,100666.56
2022-12-26T06:02:00.074Z,100679.66
2022-12-26T06:04:05.102Z,100670.91
2022-12-26T06:06:08.606Z,100678.69
2022-12-26T06:08:11.875Z,100676.94
2022-12-26T06:10:15.417Z,100670.84
2022-12-26T06:12:18.764Z,100667.34
2022-12-26T06:14:22.086Z,100670.91
2022-12-26T06:16:25.545Z,100669.19
2022-12-26T06:18:28.810Z,100672.72
2022-12-26T06:20:33.920Z,100677.94
2022-12-26T06:22:37.184Z,100677.09
2022-12-26T06:24:40.428Z,100680.56
2022-12-26T06:26:43.961Z,100682.28
2022-12-26T06:28:47.900Z,100687.50
2022-12-26T06:30:51.771Z,100686.63
2022-12-26T06:32:55.064Z,100697.06
2022-12-26T06:34:58.320Z,100692.75
2022-12-26T06:37:03.008Z,100691.09
2022-12-26T06:39:06.230Z,100698.13
2022-12-26T06:41:14.209Z,100699.88
2022-12-26T06:43:17.492Z,100699.09
2022-12-26T06:45:20.762Z,100695.59
2022-12-26T06:47:25.087Z,100692.22
2022-12-26T06:49:32.613Z,100702.72
2022-12-26T06:51:36.750Z,100699.25
2022-12-26T06:53:41.566Z,100700.19
2022-12-26T06:55:44.825Z,100708.91
2022-12-26T06:57:48.169Z,100713.28
2022-12-26T06:59:51.511Z,100703.75
2022-12-26T07:01:54.847Z,100709.06
2022-12-26T07:03:58.738Z,100706.44
2022-12-26T07:06:05.436Z,100715.22
2022-12-26T07:08:08.745Z,100717.91
2022-12-26T07:10:13.786Z,100723.13
2022-12-26T07:12:20.890Z,100723.25
2022-12-26T07:14:24.704Z,100730.19
2022-12-26T07:16:29.584Z,100722.41
2022-12-26T07:18:33.417Z,100726.72
2022-12-26T07:20:36.684Z,100725.91
2022-12-26T07:22:40.210Z,100732.00
2022-12-26T07:24:43.484Z,100733.81
2022-12-26T07:26:48.913Z,100732.09
2022-12-26T07:28:55.141Z,100740.78
2022-12-26T07:31:00.029Z,100746.94
2022-12-26T07:33:03.404Z,100744.28
2022-12-26T07:35:07.358Z,100750.41
2022-12-26T07:37:11.098Z,100758.31
2022-12-26T07:39:15.034Z,100749.56
2022-12-26T07:41:35.981Z,100754.81
2022-12-26T07:43:40.627Z,100758.31
2022-12-26T07:45:45.987Z,100753.97
2022-12-26T07:47:49.365Z,100762.66
2022-12-26T07:49:52.668Z,100763.59
2022-12-26T07:51:55.904Z,100759.25
2022-12-26T07:53:59.147Z,100760.09
2022-12-26T07:56:02.791Z,100758.38
2022-12-26T07:58:06.077Z,100761.88
2022-12-26T08:00:11.657Z,100751.41
2022-12-26T08:02:18.044Z,100754.94
2022-12-26T08:04:21.475Z,100754.94
2022-12-26T08:06:24.874Z,100757.50
2022-12-26T08:08:28.251Z,100759.25
2022-12-26T08:10:31.518Z,100760.97
2022-12-26T08:12:35.196Z,100758.38
2022-12-26T08:14:38.953Z,100767.09
2022-12-26T08:16:48.126Z,100777.56
2022-12-26T08:18:54.734Z,100786.31
2022-12-26T08:20:59.768Z,100779.34
2022-12-26T08:23:03.074Z,100787.22
2022-12-26T08:25:07.774Z,100780.34
2022-12-26T08:27:12.363Z,100779.47
2022-12-26T08:29:15.648Z,100782.09
2022-12-26T08:31:21.029Z,100780.34
2022-12-26T08:33:25.851Z,100797.78
2022-12-26T08:35:30.309Z,100792.53
2022-12-26T08:37:33.551Z,100786.47
2022-12-26T08:39:36.806Z,100793.41
2022-12-26T08:41:40.134Z,100796.81
2022-12-26T08:44:24.847Z,100787.22
2022-12-26T08:46:08.084Z,100790.66
2022-12-26T08:48:12.572Z,100789.81
2022-12-26T08:50:17.604Z,100785.41
2022-12-26T08:52:20.998Z,100795.03
2022-12-26T08:54:24.492Z,100798.50
2022-12-26T08:56:28.888Z,100805.44
2022-12-26T08:58:33.080Z,100797.59
2022-12-26T09:00:36.360Z,100810.63
2022-12-26T09:02:39.787Z,100808.84
2022-12-26T09:04:43.444Z,100814.91
2022-12-26T09:06:48.046Z,100812.25
2022-12-26T09:08:51.615Z,100808.72
2022-12-26T09:10:54.907Z,100807.78
2022-12-26T09:12:58.361Z,100819.94
2022-12-26T09:15:01.666Z,100815.56
2022-12-26T09:17:05.487Z,100821.59
2022-12-26T09:19:10.605Z,100818.94
2022-12-26T09:21:15.322Z,100819.88
2022-12-26T09:23:20.512Z,100823.22
2022-12-26T09:25:25.552Z,100838.88
2022-12-26T09:27:30.199Z,100834.44
2022-12-26T09:29:33.564Z,100838.75
2022-12-26T09:31:37.247Z,100843.91
2022-12-26T09:33:41.333Z,100840.41
2022-12-26T09:35:44.644Z,100848.19
2022-12-26T09:37:48.016Z,100849.88
2022-12-26T09:39:52.887Z,100851.59
2022-12-26T09:42:04.563Z,100854.13
2022-12-26T09:44:17.487Z,100853.13
2022-12-26T09:46:30.329Z,100849.53
2022-12-26T09:48:40.853Z,100853.78
2022-12-26T09:50:44.465Z,100838.91
2022-12-26T09:52:51.692Z,100859.78
2022-12-26T09:55:01.832Z,100858.00
2022-12-26T09:57:14.771Z,100864.91
2022-12-26T09:59:20.666Z,100856.16
2022-12-26T10:01:27.522Z,100870.03
2022-12-26T10:03:35.193Z,100873.44
2022-12-26T10:05:45.650Z,100863.78
2022-12-26T10:07:55.296Z,100864.50
2022-12-26T10:10:10.455Z,100865.34
2022-12-26T10:12:44.465Z,100872.31
2022-12-26T10:14:54.833Z,100872.31
2022-12-26T10:17:04.463Z,100875.75
2022-12-26T10:19:32.690Z,100877.41
2022-12-26T10:21:45.458Z,100874.63
2022-12-26T10:23:52.914Z,100898.13
2022-12-26T10:26:04.515Z,100891.91
2022-12-26T10:28:17.302Z,100886.59
2022-12-26T10:30:24.944Z,100897.81
2022-12-26T10:32:32.225Z,100900.34
2022-12-26T10:34:41.036Z,100908.00
2022-12-26T10:36:49.530Z,100901.50
2022-12-26T10:38:55.367Z,100909.88
2022-12-26T10:41:06.067Z,100910.59
2022-12-26T10:43:23.704Z,100908.75
2022-12-26T10:45:35.345Z,100912.28
2022-12-26T10:47:41.228Z,100917.50
2022-12-26T10:49:46.624Z,100917.31
2022-12-26T10:51:50.863Z,100916.38
2022-12-26T10:53:55.432Z,100917.22
2022-12-26T10:56:03.408Z,100921.50
2022-12-26T10:58:18.167Z,100912.66
2022-12-26T11:00:24.038Z,100912.63
2022-12-26T11:02:30.391Z,100921.31
2022-12-26T11:05:11.142Z,100918.69
2022-12-26T11:06:59.280Z,100922.25
2022-12-26T11:09:03.825Z,100913.47
2022-12-26T11:11:14.058Z,100917.00
2022-12-26T11:13:23.592Z,100918.03
2022-12-26T11:15:33.763Z,100925.00
2022-12-26T11:17:44.177Z,100931.22
2022-12-26T11:19:49.923Z,100933.94
2022-12-26T11:21:53.890Z,100923.63
2022-12-26T11:24:17.625Z,100931.56
2022-12-26T11:26:25.604Z,100934.13
2022-12-26T11:28:34.414Z,100933.22
2022-12-26T11:30:41.303Z,100923.63
2022-12-26T11:32:49.160Z,100932.41
2022-12-26T11:34:56.587Z,100926.25
2022-12-26T11:37:02.464Z,100930.59
2022-12-26T11:39:10.316Z,100931.38
2022-12-26T11:41:41.349Z,100934.53
2022-12-26T11:43:47.938Z,100934.13
2022-12-26T11:45:52.096Z,100928.66
2022-12-26T11:47:58.488Z,100936.41
2022-12-26T11:50:05.858Z,100932.00
2022-12-26T11:52:45.337Z,100937.00
2022-12-26T11:54:53.360Z,100938.59
2022-12-26T11:57:12.344Z,100941.22
2022-12-26T11:59:22.317Z,100933.47
2022-12-26T12:01:26.651Z,100937.81
2022-12-26T12:03:36.511Z,100942.03
2022-12-26T12:05:50.731Z,100941.22
2022-12-26T12:08:10.659Z,100947.44
2022-12-26T12:10:55.973Z,100946.72
2022-12-26T12:13:09.013Z,100951.03
2022-12-26T12:15:24.283Z,100954.56
2022-12-26T12:17:37.199Z,100947.59
2022-12-26T12:19:50.635Z,100945.84
2022-12-26T12:22:11.648Z,100956.25
2022-12-26T12:24:35.574Z,100942.25
2022-12-26T12:26:54.449Z,100950.94
2022-12-26T12:29:21.754Z,100947.38
2022-12-26T12:31:37.729Z,100955.31
2022-12-26T12:33:50.317Z,100951.78
2022-12-26T12:36:03.961Z,100957.09
2022-12-26T12:38:17.695Z,100962.31
2022-12-26T12:40:37.913Z,100969.31
2022-12-26T12:42:52.439Z,100970.25
2022-12-26T12:45:11.087Z,100973.72
2022-12-26T12:47:23.868Z,100966.75
2022-12-26T12:49:41.908Z,100972.06
2022-12-26T12:52:03.837Z,100960.72
2022-12-26T12:54:35.087Z,100958.09
2022-12-26T12:56:47.466Z,100960.72
2022-12-26T12:59:01.972Z,100955.47
2022-12-26T13:01:18.983Z,100954.66
2022-12-26T13:03:40.689Z,100965.16
2022-12-26T13:05:53.746Z,100952.09
2022-12-26T13:08:09.434Z,100961.81
2022-12-26T13:10:24.494Z,100957.50
2022-12-26T13:12:43.188Z,100955.78
2022-12-26T13:14:54.260Z,100959.25
2022-12-26T13:17:04.867Z,100956.63
2022-12-26T13:19:20.000Z,100961.84
2022-12-26T13:21:32.176Z,100967.03
2022-12-26T13:23:59.443Z,100967.00
2022-12-26T13:26:16.472Z,100965.16
2022-12-26T13:28:31.544Z,100967.72
2022-12-26T13:30:38.301Z,100968.47
2022-12-26T13:32:46.702Z,100960.53
2022-12-26T13:34:55.239Z,100959.69
2022-12-26T13:37:01.090Z,100968.34
2022-12-26T13:39:32.335Z,100963.94
2022-12-26T13:41:54.933Z,100959.47
2022-12-26T13:44:03.191Z,100961.19
2022-12-26T13:46:27.470Z,100971.63
2022-12-26T13:49:00.979Z,100961.06
2022-12-26T13:51:08.081Z,100974.16
2022-12-26T13:53:33.398Z,100968.84
2022-12-26T13:55:57.331Z,100963.56
2022-12-26T13:58:54.113Z,100969.59
2022-12-26T14:01:51.133Z,100968.72
2022-12-26T14:04:27.722Z,100970.47
2022-12-26T14:07:08.259Z,100960.88
2022-12-26T14:09:45.543Z,100966.06
2022-12-26T14:12:54.956Z,100968.69
2022-12-26T14:15:50.425Z,100966.91
2022-12-26T14:18:11.432Z,100957.34
2022-12-26T14:20:32.784Z,100966.13
2022-12-26T14:22:56.093Z,100970.47
2022-12-26T14:25:25.131Z,100974.81
2022-12-26T14:27:41.699Z,100964.34
2022-12-26T14:29:56.637Z,100963.56
2022-12-26T14:32:15.183Z,100962.66
2022-12-26T14:34:38.481Z,100979.28
2022-12-26T14:37:05.703Z,100977.50
2022-12-26T14:40:01.902Z,100976.66
2022-12-26T14:42:46.945Z,100978.41
2022-12-26T14:45:03.414Z,100991.59
2022-12-26T14:47:54.712Z,100997.78
2022-12-26T14:50:20.936Z,101011.72
2022-12-26T14:52:51.537Z,101013.59
2022-12-26T14:55:27.446Z,101016.28
2022-12-26T14:58:35.790Z,101012.75
2022-12-26T15:00:52.576Z,101014.34
2022-12-26T15:03:42.668Z,101020.31
2022-12-26T15:05:53.729Z,101013.09
2022-12-26T15:08:55.520Z,101017.31
2022-12-26T15:11:39.328Z,101019.00
2022-12-26T15:14:32.166Z,101024.28
2022-12-26T15:17:23.565Z,101039.25
2022-12-26T15:20:14.150Z,101041.06
2022-12-26T15:23:00.275Z,101035.88
2022-12-26T15:26:02.324Z,101020.19
2022-12-26T15:28:45.377Z,101031.63
2022-12-26T15:31:33.545Z,101031.81
2022-12-26T15:33:57.661Z,101031.91
2022-12-26T15:36:23.575Z,101042.50
2022-12-26T15:38:51.877Z,101034.75
2022-12-26T15:41:49.368Z,101034.88
2022-12-26T15:44:46.774Z,101046.38
2022-12-26T15:47:24.934Z,101052.63
2022-12-26T15:49:51.863Z,101064.91
2022-12-26T15:52:14.033Z,101066.78
2022-12-26T15:55:29.401Z,101064.25
2022-12-26T15:58:29.827Z,101071.34
2022-12-26T16:01:29.701Z,101076.66
2022-12-26T16:04:13.081Z,101071.56
2022-12-26T16:09:44.229Z,101082.22
2022-12-26T16:12:03.573Z,101084.84
2022-12-26T16:14:52.521Z,101089.28
2022-12-26T16:17:13.841Z,101077.06
2022-12-26T16:19:27.920Z,101082.31
2022-12-26T16:22:04.064Z,101075.38
2022-12-26T16:24:10.145Z,101072.75
2022-12-26T16:26:23.420Z,101077.16
2022-12-26T16:28:29.373Z,101079.00
2022-12-26T16:30:39.153Z,101078.13
2022-12-26T16:33:19.485Z,101072.88
2022-12-26T16:36:00.924Z,101072.88
2022-12-26T16:38:18.070Z,101094.72
2022-12-26T16:40:27.158Z,101098.19
2022-12-26T16:42:36.387Z,101113.03
2022-12-26T16:44:45.507Z,101113.91
2022-12-26T16:46:49.859Z,101116.53
2022-12-26T16:49:02.925Z,101109.56
2022-12-26T16:51:10.063Z,101120.94
2022-12-26T16:56:54.295Z,101127.91
2022-12-26T16:59:17.678Z,101138.41
2022-12-26T17:01:24.179Z,101140.13
2022-12-26T17:03:35.393Z,101150.63
2022-12-26T17:05:42.848Z,101153.22
2022-12-26T17:07:50.898Z,101152.38
2022-12-26T17:09:57.490Z,101145.41
2022-12-26T17:12:05.059Z,101150.72
2022-12-26T17:14:19.001Z,101156.84
2022-12-26T17:16:25.100Z,101157.75
2022-12-26T17:18:41.817Z,101153.41
2022-12-26T17:20:45.566Z,101155.22
2022-12-26T17:22:51.428Z,101158.75
2022-12-26T17:25:23.293Z,101165.81
2022-12-26T17:27:28.435Z,101165.81
2022-12-26T17:30:21.125Z,101176.31
2022-12-26T17:32:33.510Z,101185.84
2022-12-26T17:34:40.872Z,101191.94
2022-12-26T17:37:17.650Z,101201.50
2022-12-26T17:39:21.124Z,101202.34
2022-12-26T17:41:24.749Z,101207.56
2022-12-26T17:43:32.800Z,101204.88
2022-12-26T17:45:40.117Z,101215.31
2022-12-26T17:47:48.629Z,101220.50
2022-12-26T17:49:55.080Z,101220.41
2022-12-26T17:52:01.914Z,101221.25
2022-12-26T17:54:06.628Z,101224.75
2022-12-26T17:56:16.189Z,101229.94
2022-12-26T17:58:21.513Z,101226.44
2022-12-26T18:00:27.547Z,101228.16
2022-12-26T18:02:31.239Z,101226.31
2022-12-26T18:04:34.817Z,101228.84
2022-12-26T18:06:40.825Z,101233.13
2022-12-26T18:08:45.419Z,101227.94
2022-12-26T18:10:49.179Z,101237.53
2022-12-26T18:12:54.239Z,101240.19
2022-12-26T18:15:01.964Z,101240.28
2022-12-26T18:17:06.118Z,101243.00
2022-12-26T18:19:14.522Z,101238.66
2022-12-26T18:21:18.446Z,101243.88
2022-12-26T18:23:23.210Z,101248.22
2022-12-26T18:25:28.141Z,101252.63
2022-12-26T18:27:34.138Z,101260.50
2022-12-26T18:29:40.924Z,101258.81
2022-12-26T18:31:44.617Z,101258.88
2022-12-26T18:33:48.255Z,101266.75
2022-12-26T18:35:52.365Z,101256.31
2022-12-26T18:37:55.891Z,101258.09
2022-12-26T18:39:59.655Z,101262.56
2022-12-26T18:42:04.057Z,101264.41
2022-12-26T18:44:07.652Z,101270.50
2022-12-26T18:46:17.503Z,101271.41
2022-12-26T18:48:21.295Z,101265.31
2022-12-26T18:50:25.245Z,101266.16
2022-12-26T18:52:29.059Z,101274.94
2022-12-26T18:54:33.379Z,101279.22
2022-12-26T18:56:37.332Z,101284.47
2022-12-26T18:58:41.499Z,101283.53
2022-12-26T19:00:45.620Z,101286.09
2022-12-26T19:02:52.208Z,101287.78
2022-12-26T19:04:56.195Z,101287.72
2022-12-26T19:07:00.230Z,101294.69
2022-12-26T19:09:04.522Z,101288.59
2022-12-26T19:11:08.472Z,101280.69
2022-12-26T19:13:12.840Z,101294.69
2022-12-26T19:15:17.366Z,101296.50
2022-12-26T19:17:21.489Z,101298.31
2022-12-26T19:19:29.637Z,101297.56
2022-12-26T19:21:34.013Z,101302.91
2022-12-26T19:23:37.832Z,101313.47
2022-12-26T19:25:42.314Z,101310.94
2022-12-26T19:27:47.216Z,101315.38
2022-12-26T19:29:51.326Z,101321.59
2022-12-26T19:31:56.830Z,101318.16
2022-12-26T19:34:00.801Z,101319.09
2022-12-26T19:36:07.634Z,101318.28
2022-12-26T19:38:14.299Z,101322.66
2022-12-26T19:40:24.555Z,101320.13
2022-12-26T19:42:30.223Z,101317.56
2022-12-26T19:44:35.431Z,101315.94
2022-12-26T19:46:39.741Z,101315.13
2022-12-26T19:48:44.265Z,101313.44
2022-12-26T19:50:48.848Z,101307.38
2022-12-26T19:52:54.928Z,101317.00
2022-12-26T19:55:00.351Z,101315.28
2022-12-26T19:57:04.579Z,101324.06
2022-12-26T19:59:08.792Z,101321.44
2022-12-26T20:01:15.913Z,101316.31
2022-12-26T20:03:20.306Z,101314.56
2022-12-26T20:05:24.190Z,101312.00
2022-12-26T20:07:28.617Z,101319.06
2022-12-26T20:09:34.130Z,101321.66
2022-12-26T20:11:40.725Z,101320.88
2022-12-26T20:13:45.965Z,101319.09
2022-12-26T20:15:51.416Z,101321.78
2022-12-26T20:17:55.899Z,101327.88
2022-12-26T20:20:00.747Z,101322.66
2022-12-26T20:22:04.994Z,101328.72
2022-12-26T20:24:09.690Z,101330.56
2022-12-26T20:26:17.957Z,101331.44
2022-12-26T20:28:22.106Z,101342.81
2022-12-26T20:30:26.068Z,101333.19
2022-12-26T20:32:30.077Z,101337.59
2022-12-26T20:34:33.826Z,101333.25
2022-12-26T20:36:38.790Z,101341.16
2022-12-26T20:38:43.309Z,101348.22
2022-12-26T20:40:50.015Z,101340.38
2022-12-26T20:42:55.700Z,101342.13
2022-12-26T20:44:59.384Z,101343.03
2022-12-26T20:47:03.615Z,101348.22
2022-12-26T20:49:07.488Z,101347.41
2022-12-26T20:51:14.179Z,101357.88
2022-12-26T20:53:18.268Z,101361.34
2022-12-26T20:55:22.060Z,101370.09
2022-12-26T20:57:25.598Z,101367.50
2022-12-26T20:59:30.969Z,101366.63
2022-12-26T21:01:37.956Z,101373.63
2022-12-26T21:03:42.495Z,101369.28
2022-12-26T21:05:46.116Z,101370.22
2022-12-26T21:07:49.934Z,101371.94
2022-12-26T21:09:53.727Z,101363.25
2022-12-26T21:11:57.801Z,101360.63
2022-12-26T21:14:04.808Z,101355.41
2022-12-26T21:16:13.383Z,101355.41
2022-12-26T21:18:17.642Z,101357.19
2022-12-26T21:20:21.505Z,101363.25
2022-12-26T21:22:25.200Z,101364.19
2022-12-26T21:24:31.185Z,101366.78
2022-12-26T21:26:38.042Z,101363.34
2022-12-26T21:28:43.000Z,101364.22
2022-12-26T21:30:46.980Z,101369.47
2022-12-26T21:32:52.139Z,101361.59
2022-12-26T21:34:56.162Z,101370.38
2022-12-26T21:37:17.962Z,101370.38
2022-12-26T21:39:21.764Z,101367.72
2022-12-26T21:41:26.772Z,101373.72
2022-12-26T21:43:31.884Z,101375.47
2022-12-26T21:45:35.569Z,101384.16
2022-12-26T21:47:39.454Z,101379.72
2022-12-26T21:49:46.415Z,101380.56
2022-12-26T21:51:50.491Z,101384.91
2022-12-26T21:54:14.630Z,101385.81
2022-12-26T21:56:18.616Z,101389.22
2022-12-26T21:58:22.416Z,101387.50
2022-12-26T22:00:25.345Z,101388.34
2022-12-26T22:02:49.189Z,101387.44
2022-12-26T22:04:54.699Z,101387.41
2022-12-26T22:06:58.396Z,101390.84
2022-12-26T22:09:02.683Z,101383.00
2022-12-26T22:11:24.050Z,101385.56
2022-12-26T22:13:28.355Z,101377.69
2022-12-26T22:15:50.347Z,101377.69
2022-12-26T22:17:54.554Z,101377.69
2022-12-26T22:20:00.181Z,101377.69
2022-12-26T22:22:04.223Z,101378.53
2022-12-26T22:24:08.777Z,101386.38
2022-12-26T22:26:14.397Z,101387.28
2022-12-26T22:28:23.105Z,101390.75
2022-12-26T22:30:27.671Z,101392.44
2022-12-26T22:32:32.411Z,101386.31
2022-12-26T22:34:36.496Z,101385.47
2022-12-26T22:36:43.208Z,101387.19
2022-12-26T22:38:46.919Z,101383.69
2022-12-26T22:40:58.962Z,101388.03
2022-12-26T22:43:05.471Z,101387.16
2022-12-26T22:45:11.686Z,101392.38
2022-12-26T22:47:15.956Z,101398.44
2022-12-26T22:49:20.391Z,101387.94
2022-12-26T22:51:26.190Z,101385.34
2022-12-26T22:53:32.310Z,101385.34
2022-12-26T22:55:36.381Z,101387.06
2022-12-26T22:57:40.615Z,101380.97
2022-12-26T23:02:08.845Z,101386.16
2022-12-26T23:04:15.183Z,101383.50
2022-12-26T23:06:24.702Z,101381.78
2022-12-26T23:08:31.356Z,101390.53
2022-12-26T23:10:36.077Z,101391.41
2022-12-26T23:12:46.331Z,101396.69
2022-12-26T23:14:50.341Z,101394.91
2022-12-26T23:16:58.473Z,101396.66
2022-12-26T23:19:23.930Z,101398.38
2022-12-26T23:21:39.684Z,101397.41
2022-12-26T23:23:45.809Z,101394.78
2022-12-26T23:25:52.027Z,101405.22
2022-12-26T23:28:13.241Z,101397.34
2022-12-26T23:30:19.920Z,101406.91
2022-12-26T23:32:24.327Z,101409.53
2022-12-26T23:34:28.785Z,101411.22
2022-12-26T23:36:32.491Z,101405.97
2022-12-26T23:38:36.692Z,101406.88
2022-12-26T23:40:41.918Z,101397.22
2022-12-26T23:42:46.479Z,101395.47
2022-12-26T23:44:50.998Z,101400.69
2022-12-26T23:46:54.783Z,101400.69
2022-12-26T23:48:59.563Z,101403.28
2022-12-26T23:51:04.867Z,101411.09
2022-12-26T23:53:10.267Z,101406.75
2022-12-26T23:55:15.080Z,101411.09
2022-12-26T23:57:21.558Z,101411.09
2022-12-26T23:59:25.903Z,101411.09
